Time;durP1;ratioP1;P1;durP2;ratioP2;P2;SDS_P1;SDS_P2;PMS_P1;PMS_P2;Temp;Humidity;BMP_temperature;BMP_pressure;BME280_temperature;BME280_humidity;BME280_pressure;Samples;Min_cycle;Max_cycle;Signal;HPM_P1;HPM_P2
2021/06/07 00:01:34;;;;;;;0.57;0.57;;;;;;;22.95;35.02;102481.94;4158977;28;20117;-57
2021/06/07 00:03:35;;;;;;;1.45;0.77;;;;;;;22.94;34.87;102469.94;4160771;28;20033;-54
2021/06/07 00:05:35;;;;;;;3.45;0.80;;;;;;;23.01;34.83;102497.63;4165474;28;20035;-56
2021/06/07 00:07:36;;;;;;;1.88;0.90;;;;;;;23.01;34.83;102486.44;4163823;28;20508;-54
2021/06/07 00:09:37;;;;;;;4.03;0.80;;;;;;;22.98;34.91;102484.19;4165325;28;20273;-55
2021/06/07 00:11:42;;;;;;;4.30;0.95;;;;;;;22.92;34.83;102482.47;4166444;28;20090;-55
2021/06/07 00:13:44;;;;;;;2.17;0.73;;;;;;;22.91;34.83;102476.03;4164876;28;20549;-53
2021/06/07 00:15:44;;;;;;;1.13;0.70;;;;;;;22.93;34.88;102479.41;4162505;28;20048;-52
2021/06/07 00:17:45;;;;;;;1.67;0.70;;;;;;;22.94;34.75;102481.09;4161703;28;20116;-50
2021/06/07 00:19:45;;;;;;;1.17;0.75;;;;;;;22.88;34.97;102481.31;4167840;28;20033;-50
2021/06/07 00:21:48;;;;;;;1.55;0.77;;;;;;;22.90;34.76;102485.53;4162337;28;20370;-53
2021/06/07 00:23:49;;;;;;;3.33;0.70;;;;;;;22.93;34.62;102479.41;4159696;28;20480;-52
2021/06/07 00:25:52;;;;;;;1.42;0.57;;;;;;;22.81;34.81;102467.59;4166717;28;20511;-53
2021/06/07 00:27:53;;;;;;;0.82;0.60;;;;;;;22.82;35.10;102480.44;4161823;28;20025;-49
2021/06/07 00:29:53;;;;;;;1.40;0.80;;;;;;;22.79;34.88;102478.19;4162129;28;20377;-54
2021/06/07 00:31:54;;;;;;;2.38;0.60;;;;;;;22.82;34.93;102476.78;4166397;28;20484;-48
2021/06/07 00:33:54;;;;;;;1.13;0.60;;;;;;;22.77;34.99;102472.00;4163287;28;20029;-52
2021/06/07 00:35:55;;;;;;;1.58;0.70;;;;;;;22.77;34.76;102478.44;4162131;28;20048;-53
2021/06/07 00:37:55;;;;;;;0.90;0.50;;;;;;;22.72;34.75;102472.81;4163770;28;20033;-50
2021/06/07 00:39:56;;;;;;;0.63;0.50;;;;;;;22.79;34.63;102472.59;4160237;28;20115;-51
2021/06/07 00:41:56;;;;;;;1.73;0.82;;;;;;;22.75;34.60;102472.28;4161106;28;20377;-50
2021/06/07 00:44:00;;;;;;;1.00;0.68;;;;;;;22.77;34.54;102472.88;4161606;28;20045;-52
2021/06/07 00:46:01;;;;;;;1.15;0.52;;;;;;;22.71;34.92;102475.84;4168370;28;20041;-52
2021/06/07 00:48:03;;;;;;;2.35;0.73;;;;;;;22.63;34.76;102480.81;4163004;28;20032;-52
2021/06/07 00:50:11;;;;;;;1.10;0.55;;;;;;;22.67;34.82;102480.31;4162504;28;20033;-50
2021/06/07 00:52:12;;;;;;;0.82;0.63;;;;;;;22.74;34.65;102478.13;4159033;28;20590;-50
2021/06/07 00:54:14;;;;;;;0.80;0.50;;;;;;;22.66;34.87;102475.81;4159191;28;20033;-53
2021/06/07 00:56:15;;;;;;;1.15;0.60;;;;;;;22.56;34.71;102463.44;4158840;28;20480;-49
2021/06/07 00:58:18;;;;;;;0.77;0.50;;;;;;;22.61;34.82;102471.84;4163963;28;20570;-52
2021/06/07 01:00:19;;;;;;;0.90;0.60;;;;;;;22.57;34.98;102475.41;4165558;28;20029;-54
2021/06/07 01:04:20;;;;;;;3.25;0.65;;;;;;;22.52;34.86;102475.38;4153828;28;20254;-48
2021/06/07 01:06:21;;;;;;;0.68;0.50;;;;;;;22.53;34.97;102482.66;4161773;28;20499;-56
2021/06/07 01:08:23;;;;;;;2.72;0.50;;;;;;;22.59;34.64;102487.19;4163547;28;20175;-57
2021/06/07 01:10:26;;;;;;;1.02;0.80;;;;;;;22.27;34.88;102457.28;4162872;28;20029;-56
2021/06/07 01:12:26;;;;;;;0.90;0.70;;;;;;;22.47;34.93;102470.59;4164468;28;20067;-50
2021/06/07 01:14:27;;;;;;;6.35;0.70;;;;;;;22.44;35.10;102477.53;4163599;28;20037;-52
2021/06/07 01:16:27;;;;;;;2.78;0.60;;;;;;;22.42;35.04;102478.94;4164850;28;20091;-59
2021/06/07 01:18:29;;;;;;;2.95;0.80;;;;;;;22.43;34.84;102467.50;4162213;28;20048;-56
2021/06/07 01:20:30;;;;;;;1.55;0.70;;;;;;;22.39;34.80;102474.72;4169591;28;20036;-54
2021/06/07 01:22:31;;;;;;;2.33;0.60;;;;;;;22.33;35.10;102472.97;4164773;28;20215;-53
2021/06/07 01:24:31;;;;;;;12.00;0.70;;;;;;;22.39;34.60;102474.72;4166997;28;20028;-55
2021/06/07 01:26:32;;;;;;;2.03;0.63;;;;;;;22.30;34.90;102467.09;4169905;28;20483;-51
2021/06/07 01:28:33;;;;;;;1.10;0.43;;;;;;;22.37;34.83;102471.34;4167900;28;20468;-57
2021/06/07 01:32:55;;;;;;;3.53;0.63;;;;;;;22.41;34.78;102472.50;4927423;23;20341;-58
2021/06/07 01:34:55;;;;;;;1.15;0.68;;;;;;;22.33;34.89;102461.81;4147744;28;20033;-56
2021/06/07 01:36:56;;;;;;;2.65;0.50;;;;;;;22.29;34.75;102473.75;4156670;28;20085;-56
2021/06/07 01:38:56;;;;;;;1.55;0.80;;;;;;;22.32;34.57;102468.53;4156395;28;20398;-52
2021/06/07 01:40:59;;;;;;;3.45;0.60;;;;;;;22.37;34.43;102467.69;4154276;28;20045;-55
2021/06/07 01:43:00;;;;;;;0.88;0.65;;;;;;;22.35;34.79;102470.75;4138434;28;20022;-55
2021/06/07 01:45:01;;;;;;;2.25;0.70;;;;;;;22.23;34.95;102459.78;4149218;28;20709;-55
2021/06/07 01:47:01;;;;;;;2.13;0.73;;;;;;;22.26;34.66;102466.78;4155965;28;20032;-59
2021/06/07 01:49:02;;;;;;;2.60;0.40;;;;;;;22.24;34.80;102467.03;4152233;28;20068;-59
2021/06/07 01:51:05;;;;;;;0.85;0.50;;;;;;;22.13;34.83;102453.25;4156700;28;20032;-59
2021/06/07 01:53:07;;;;;;;0.82;0.60;;;;;;;22.23;34.89;102459.78;4148599;28;20624;-58
2021/06/07 01:55:08;;;;;;;2.00;0.55;;;;;;;22.17;35.02;102457.19;4158790;28;20112;-59
2021/06/07 01:57:09;;;;;;;1.55;0.65;;;;;;;22.18;34.76;102468.09;4159726;28;20068;-58
2021/06/07 01:59:09;;;;;;;4.05;0.75;;;;;;;22.15;34.83;102454.69;4158043;28;20025;-59
2021/06/07 02:01:16;;;;;;;3.03;0.50;;;;;;;22.17;34.77;102474.78;4154024;28;20032;-59
2021/06/07 02:03:19;;;;;;;1.08;0.60;;;;;;;22.13;34.83;102456.03;4158259;28;20040;-59
2021/06/07 02:05:24;;;;;;;1.20;0.70;;;;;;;22.14;34.74;102457.72;4156167;28;20070;-58
2021/06/07 02:07:24;;;;;;;0.68;0.60;;;;;;;22.14;34.58;102466.09;4155101;28;20033;-59
2021/06/07 02:09:25;;;;;;;1.08;0.52;;;;;;;22.03;34.74;102453.97;4159130;28;20032;-58
2021/06/07 02:11:29;;;;;;;1.88;0.50;;;;;;;22.11;34.76;102464.66;4159201;28;20037;-59
2021/06/07 02:13:30;;;;;;;2.67;0.43;;;;;;;22.17;34.82;102457.19;4157454;28;20026;-60
2021/06/07 02:15:30;;;;;;;1.48;0.63;;;;;;;22.06;34.73;102462.66;4165007;28;20417;-59
2021/06/07 02:17:31;;;;;;;1.83;0.70;;;;;;;22.03;35.00;102456.78;4153656;28;20118;-58
2021/06/07 02:19:31;;;;;;;0.70;0.70;;;;;;;22.08;34.65;102457.66;4159654;28;20044;-54
2021/06/07 02:21:32;;;;;;;0.45;0.43;;;;;;;22.05;35.06;102457.34;4158819;28;20041;-54
2021/06/07 02:23:33;;;;;;;1.73;0.65;;;;;;;22.03;34.89;102460.38;4158557;28;20037;-53
2021/06/07 02:25:33;;;;;;;1.20;0.45;;;;;;;22.04;34.83;102455.66;4160141;28;20104;-54
2021/06/07 02:27:34;;;;;;;0.73;0.50;;;;;;;22.02;34.81;102464.28;4158189;28;20494;-55
2021/06/07 02:29:35;;;;;;;2.38;0.60;;;;;;;22.00;34.79;102458.13;4159344;28;20091;-59
2021/06/07 02:31:36;;;;;;;2.00;0.70;;;;;;;22.05;34.80;102460.13;4158771;28;20316;-52
2021/06/07 02:33:37;;;;;;;1.55;0.68;;;;;;;21.96;34.50;102451.34;4155195;28;20505;-54
2021/06/07 02:35:38;;;;;;;0.93;0.30;;;;;;;21.94;34.77;102453.56;4157466;28;20029;-47
2021/06/07 02:37:38;;;;;;;2.78;0.65;;;;;;;21.86;34.92;102454.03;4156292;28;20026;-47
2021/06/07 02:39:39;;;;;;;0.50;0.50;;;;;;;21.93;34.73;102454.66;4156667;28;20076;-50
2021/06/07 02:41:42;;;;;;;1.30;0.70;;;;;;;21.97;34.73;102443.84;4157406;28;20033;-53
2021/06/07 02:43:42;;;;;;;1.38;0.50;;;;;;;21.94;34.77;102453.56;4154196;28;20025;-59
2021/06/07 02:45:42;;;;;;;0.60;0.50;;;;;;;21.95;34.67;102460.84;4159083;28;20037;-60
2021/06/07 02:47:45;;;;;;;2.05;0.57;;;;;;;21.97;34.87;102460.56;4156149;28;20042;-58
2021/06/07 02:49:45;;;;;;;1.95;0.47;;;;;;;21.91;34.62;102456.88;4153640;28;20037;-58
2021/06/07 02:51:46;;;;;;;1.38;0.52;;;;;;;21.90;34.86;102446.81;4154736;28;20121;-57
2021/06/07 02:53:49;;;;;;;0.40;0.30;;;;;;;21.80;34.86;102432.78;4152626;28;20064;-58
2021/06/07 02:55:52;;;;;;;1.25;0.50;;;;;;;21.90;34.85;102460.75;4151653;28;20029;-58
2021/06/07 02:57:54;;;;;;;0.40;0.40;;;;;;;21.87;34.94;102456.56;4155815;28;20034;-59
2021/06/07 02:59:54;;;;;;;0.68;0.68;;;;;;;21.85;34.74;102455.97;4149391;28;20045;-59
2021/06/07 03:01:55;;;;;;;1.50;0.63;;;;;;;21.89;34.65;102467.47;4154727;28;20030;-58
2021/06/07 03:03:55;;;;;;;0.40;0.40;;;;;;;21.83;34.77;102460.97;4156140;28;20049;-58
2021/06/07 03:05:59;;;;;;;0.40;0.40;;;;;;;21.80;34.90;102464.28;4158114;28;20021;-57
2021/06/07 03:08:01;;;;;;;0.70;0.60;;;;;;;21.82;34.74;102464.00;4152797;28;20030;-55
2021/06/07 03:10:07;;;;;;;0.50;0.50;;;;;;;21.80;34.86;102463.44;4156707;28;20029;-55
2021/06/07 03:12:08;;;;;;;0.40;0.40;;;;;;;21.81;34.77;102457.59;4154806;28;20105;-54
2021/06/07 03:14:08;;;;;;;0.88;0.47;;;;;;;21.80;34.92;102469.00;4147534;28;20133;-56
2021/06/07 03:16:09;;;;;;;0.95;0.50;;;;;;;21.77;34.79;102464.78;4157857;28;20033;-59
2021/06/07 03:18:10;;;;;;;0.50;0.47;;;;;;;21.74;34.94;102466.13;4153457;28;20064;-58
2021/06/07 03:20:14;;;;;;;2.78;0.60;;;;;;;21.72;34.83;102465.56;4157035;28;20025;-58
2021/06/07 03:22:14;;;;;;;0.80;0.32;;;;;;;21.71;34.80;102460.25;4156813;28;20038;-55
2021/06/07 03:24:15;;;;;;;1.27;0.50;;;;;;;21.72;34.68;102453.59;4149119;28;20041;-53
2021/06/07 03:26:15;;;;;;;0.90;0.60;;;;;;;21.69;34.82;102466.09;4156684;28;20049;-52
2021/06/07 03:28:17;;;;;;;0.40;0.35;;;;;;;21.68;34.80;102460.78;4156126;28;20389;-55
2021/06/07 03:30:19;;;;;;;0.50;0.50;;;;;;;21.69;34.94;102460.50;4151220;28;20480;-55
2021/06/07 03:32:19;;;;;;;0.32;0.30;;;;;;;21.69;34.79;102460.50;4156216;28;20025;-56
2021/06/07 03:34:20;;;;;;;0.88;0.50;;;;;;;21.70;34.87;102450.19;4144606;28;20720;-55
2021/06/07 03:36:22;;;;;;;0.47;0.40;;;;;;;21.71;34.89;102454.69;4139209;28;20267;-56
2021/06/07 03:38:27;;;;;;;0.50;0.50;;;;;;;21.71;34.89;102461.09;4154859;28;20471;-54
2021/06/07 03:40:30;;;;;;;1.90;0.60;;;;;;;21.72;34.56;102462.78;4156705;28;20037;-56
2021/06/07 03:42:32;;;;;;;0.50;0.50;;;;;;;21.60;34.88;102448.13;4156215;28;20033;-54
2021/06/07 03:44:32;;;;;;;2.10;0.40;;;;;;;21.66;35.00;102455.47;4150678;28;20048;-54
2021/06/07 03:46:32;;;;;;;0.43;0.43;;;;;;;21.64;34.84;102454.88;4156661;28;20025;-54
2021/06/07 03:48:33;;;;;;;1.30;0.68;;;;;;;21.61;34.78;102466.53;4156854;28;20060;-56
2021/06/07 03:50:35;;;;;;;1.52;0.55;;;;;;;21.60;34.77;102459.28;4155886;28;20037;-54
2021/06/07 03:52:37;;;;;;;1.35;0.50;;;;;;;21.64;35.07;102452.09;4158816;28;20515;-50
2021/06/07 03:54:38;;;;;;;2.22;0.65;;;;;;;21.67;35.00;102457.16;4155687;28;20124;-50
2021/06/07 03:56:38;;;;;;;0.45;0.40;;;;;;;21.57;34.81;102459.78;4155473;28;20382;-54
2021/06/07 03:58:38;;;;;;;0.93;0.45;;;;;;;21.62;34.93;102464.59;4157503;28;20017;-52
2021/06/07 04:00:40;;;;;;;0.60;0.38;;;;;;;21.58;34.75;102464.28;4156197;28;20125;-53
2021/06/07 04:02:41;;;;;;;0.95;0.50;;;;;;;21.69;34.77;102465.25;4154752;28;20025;-59
2021/06/07 04:04:42;;;;;;;0.43;0.43;;;;;;;21.55;34.87;102467.59;4157022;28;20063;-60
2021/06/07 04:06:43;;;;;;;0.40;0.30;;;;;;;21.52;34.83;102462.53;4154766;28;20502;-58
2021/06/07 04:08:43;;;;;;;0.73;0.43;;;;;;;21.55;34.75;102471.19;4149647;28;20033;-58
2021/06/07 04:10:46;;;;;;;0.40;0.30;;;;;;;21.57;34.73;102470.94;4152716;28;20493;-58
2021/06/07 04:12:48;;;;;;;1.05;0.50;;;;;;;21.61;34.72;102469.34;4157921;28;20042;-56
2021/06/07 04:14:49;;;;;;;0.60;0.60;;;;;;;21.60;34.84;102469.59;4154086;28;20025;-52
2021/06/07 04:16:49;;;;;;;1.67;0.70;;;;;;;21.52;34.88;102456.94;4147536;28;20495;-54
2021/06/07 04:18:49;;;;;;;2.22;0.50;;;;;;;21.57;34.99;102470.13;4154150;28;20025;-49
2021/06/07 04:20:50;;;;;;;0.70;0.70;;;;;;;21.55;35.06;102470.38;4155983;28;20059;-54
2021/06/07 04:22:50;;;;;;;0.65;0.50;;;;;;;21.51;34.93;102470.03;4153683;28;20337;-52
2021/06/07 04:24:51;;;;;;;0.50;0.50;;;;;;;21.51;34.79;102469.19;4156559;28;20037;-50
2021/06/07 04:26:51;;;;;;;0.60;0.50;;;;;;;21.53;34.95;102472.53;4152791;28;20033;-51
2021/06/07 04:28:52;;;;;;;0.60;0.60;;;;;;;21.48;34.97;102470.53;4135994;28;20064;-54
2021/06/07 04:30:52;;;;;;;0.40;0.40;;;;;;;21.51;34.87;102470.03;4153268;28;20034;-54
2021/06/07 04:32:54;;;;;;;0.90;0.50;;;;;;;21.53;34.75;102478.13;4156411;28;20036;-52
2021/06/07 04:34:55;;;;;;;0.57;0.43;;;;;;;21.39;34.92;102458.16;4154737;28;20062;-55
2021/06/07 04:36:55;;;;;;;0.85;0.57;;;;;;;21.54;34.76;102479.81;4132941;28;20045;-55
2021/06/07 04:38:56;;;;;;;0.60;0.60;;;;;;;21.49;35.03;102482.53;4151721;28;20647;-54
2021/06/07 04:40:56;;;;;;;0.63;0.40;;;;;;;21.52;34.95;102482.84;4153367;28;20349;-56
2021/06/07 04:42:58;;;;;;;0.68;0.68;;;;;;;21.53;34.96;102478.13;4155452;28;20060;-55
2021/06/07 04:44:58;;;;;;;2.40;0.40;;;;;;;21.53;35.20;102478.13;4153421;28;20132;-59
2021/06/07 04:46:58;;;;;;;1.75;0.50;;;;;;;21.51;34.94;102477.53;4154234;28;20029;-59
2021/06/07 04:48:59;;;;;;;1.20;0.60;;;;;;;21.44;34.75;102468.53;4147822;28;20614;-57
2021/06/07 04:51:00;;;;;;;2.38;0.50;;;;;;;21.47;35.14;102484.72;4154267;28;20068;-57
2021/06/07 04:53:02;;;;;;;0.50;0.50;;;;;;;21.49;35.03;102486.16;4155949;28;20116;-55
2021/06/07 04:55:03;;;;;;;0.75;0.50;;;;;;;21.41;35.24;102478.25;4155085;28;20542;-58
2021/06/07 04:57:04;;;;;;;1.05;0.70;;;;;;;21.49;35.30;102488.13;4154967;28;20033;-56
2021/06/07 04:59:05;;;;;;;0.80;0.40;;;;;;;21.46;35.23;102485.84;4157009;28;20029;-57
2021/06/07 05:01:08;;;;;;;3.55;1.00;;;;;;;21.47;35.17;102484.72;4155567;28;20514;-58
2021/06/07 05:03:08;;;;;;;0.82;0.60;;;;;;;21.45;35.04;102486.94;4153552;28;20029;-57
2021/06/07 05:05:09;;;;;;;0.60;0.60;;;;;;;21.48;34.98;102498.41;4151946;28;20107;-57
2021/06/07 05:07:10;;;;;;;0.88;0.50;;;;;;;21.48;35.31;102486.41;4146687;28;20021;-57
2021/06/07 05:09:10;;;;;;;4.20;1.00;;;;;;;21.46;35.41;102489.47;4155648;28;20435;-55
2021/06/07 05:11:10;;;;;;;1.27;0.85;;;;;;;21.30;35.04;102462.47;4152893;28;20105;-56
2021/06/07 05:13:11;;;;;;;1.15;0.90;;;;;;;21.47;35.28;102488.38;4146240;28;20037;-51
2021/06/07 05:15:13;;;;;;;0.65;0.65;;;;;;;21.51;35.00;102483.13;4158407;28;20030;-53
2021/06/07 05:17:14;;;;;;;0.60;0.52;;;;;;;21.53;35.07;102492.06;4150527;28;20095;-50
2021/06/07 05:19:14;;;;;;;1.73;0.60;;;;;;;21.41;35.14;102485.75;4158813;28;20030;-55
2021/06/07 05:21:15;;;;;;;1.20;0.68;;;;;;;21.43;34.91;102486.34;4155938;28;20029;-55
2021/06/07 05:23:17;;;;;;;0.65;0.40;;;;;;;21.48;35.10;102487.25;4152985;28;20033;-51
2021/06/07 05:25:19;;;;;;;0.70;0.45;;;;;;;21.35;35.15;102488.47;4157372;28;20026;-52
2021/06/07 05:27:20;;;;;;;2.85;0.80;;;;;;;21.34;35.51;102489.56;4156612;28;20083;-52
2021/06/07 05:29:20;;;;;;;1.90;0.70;;;;;;;21.29;35.24;102491.44;4155480;28;20123;-55
2021/06/07 05:31:21;;;;;;;0.80;0.73;;;;;;;21.35;35.57;102488.47;4158436;28;20026;-53
2021/06/07 05:33:23;;;;;;;1.25;0.55;;;;;;;21.35;35.52;102493.22;4158733;28;20037;-53
2021/06/07 05:35:26;;;;;;;0.98;0.70;;;;;;;21.30;35.69;102493.13;4157147;28;20033;-54
2021/06/07 05:37:26;;;;;;;1.40;0.60;;;;;;;21.33;35.37;102489.81;4149829;28;20025;-54
2021/06/07 05:39:27;;;;;;;0.93;0.60;;;;;;;21.36;35.28;102501.31;4157452;28;20116;-51
2021/06/07 05:41:27;;;;;;;0.75;0.45;;;;;;;21.35;35.21;102498.78;4157519;28;20049;-51
2021/06/07 05:43:28;;;;;;;1.13;0.80;;;;;;;21.29;35.23;102494.22;4160238;28;20045;-54
2021/06/07 05:45:28;;;;;;;0.90;0.57;;;;;;;21.23;35.42;102492.44;4153944;28;20045;-55
2021/06/07 05:47:29;;;;;;;1.00;0.77;;;;;;;21.17;35.33;102497.06;4155860;28;20321;-56
2021/06/07 05:49:29;;;;;;;1.17;0.80;;;;;;;21.14;35.32;102489.22;4156390;28;20033;-56
2021/06/07 05:51:30;;;;;;;1.10;0.60;;;;;;;21.11;35.63;102495.31;4158889;28;20037;-57
2021/06/07 05:53:30;;;;;;;0.38;0.38;;;;;;;21.08;35.31;102504.16;4155725;28;20407;-53
2021/06/07 05:55:36;;;;;;;0.60;0.57;;;;;;;21.02;35.76;102494.88;4157738;28;20045;-55
2021/06/07 05:57:37;;;;;;;1.17;0.60;;;;;;;21.13;35.60;102504.25;4150981;28;20055;-54
2021/06/07 05:59:37;;;;;;;2.28;0.80;;;;;;;21.11;35.63;102496.13;4153051;28;20034;-56
2021/06/07 06:01:38;;;;;;;0.70;0.68;;;;;;;21.09;35.85;102495.56;4157995;28;20557;-51
2021/06/07 06:03:38;;;;;;;1.25;0.52;;;;;;;21.12;35.58;102497.84;4158381;28;20687;-49
2021/06/07 06:05:39;;;;;;;0.82;0.60;;;;;;;21.16;35.74;102498.16;4150292;28;20036;-55
2021/06/07 06:07:41;;;;;;;1.17;0.60;;;;;;;21.13;35.54;102502.31;4157523;28;20079;-54
2021/06/07 06:09:41;;;;;;;1.02;0.70;;;;;;;21.07;35.84;102506.13;4140362;28;20033;-52
2021/06/07 06:11:42;;;;;;;1.33;0.50;;;;;;;21.10;35.81;102504.75;4159148;28;20037;-52
2021/06/07 06:13:42;;;;;;;1.00;0.57;;;;;;;21.02;35.86;102489.31;4157885;28;21478;-59
2021/06/07 06:15:43;;;;;;;0.95;0.68;;;;;;;21.17;35.59;102486.78;4155818;28;20493;-58
2021/06/07 06:17:44;;;;;;;0.52;0.40;;;;;;;21.24;35.47;102494.09;4155454;28;20037;-59
2021/06/07 06:19:44;;;;;;;0.80;0.60;;;;;;;21.21;35.70;102487.13;4156730;28;20472;-59
2021/06/07 06:21:45;;;;;;;0.47;0.32;;;;;;;21.22;35.46;102488.78;4158475;28;20029;-58
2021/06/07 06:23:45;;;;;;;0.68;0.60;;;;;;;21.16;35.81;102493.47;4155540;28;20858;-58
2021/06/07 06:25:46;;;;;;;0.88;0.50;;;;;;;21.22;35.41;102494.34;4155783;28;20041;-58
2021/06/07 06:27:46;;;;;;;1.15;0.73;;;;;;;21.17;35.33;102488.72;4134934;28;20038;-58
2021/06/07 06:29:47;;;;;;;0.63;0.63;;;;;;;21.17;35.48;102497.91;4154864;28;20044;-57
2021/06/07 06:31:47;;;;;;;3.10;0.50;;;;;;;21.22;35.79;102499.09;4155342;28;20026;-58
2021/06/07 06:33:48;;;;;;;1.05;0.50;;;;;;;21.16;35.86;102489.81;4157964;28;20138;-54
2021/06/07 06:35:48;;;;;;;0.82;0.60;;;;;;;21.19;35.85;102497.66;4156191;28;20026;-53
2021/06/07 06:37:50;;;;;;;0.50;0.50;;;;;;;21.19;36.11;102497.66;4158467;28;20030;-54
2021/06/07 06:39:50;;;;;;;2.28;0.50;;;;;;;21.18;35.94;102499.59;4154268;28;20056;-54
2021/06/07 06:41:50;;;;;;;0.82;0.63;;;;;;;21.17;35.88;102497.06;4157514;28;20352;-51
2021/06/07 06:43:52;;;;;;;2.30;0.70;;;;;;;21.13;35.83;102493.09;4161179;28;20041;-50
2021/06/07 06:45:52;;;;;;;2.13;0.57;;;;;;;21.18;35.90;102495.97;4154937;28;20128;-52
2021/06/07 06:47:57;;;;;;;0.88;0.60;;;;;;;21.19;36.11;102492.94;4160348;28;20530;-50
2021/06/07 06:49:58;;;;;;;0.60;0.60;;;;;;;21.21;36.33;102501.03;4156763;28;20042;-58
2021/06/07 06:51:59;;;;;;;0.73;0.60;;;;;;;21.22;36.36;102494.34;4155230;28;20038;-59
2021/06/07 06:53:59;;;;;;;1.50;0.65;;;;;;;21.21;36.09;102492.69;4142243;28;20066;-60
2021/06/07 06:56:00;;;;;;;0.77;0.52;;;;;;;21.28;35.16;102498.91;4138975;28;20139;-59
2021/06/07 06:58:00;;;;;;;0.45;0.45;;;;;;;21.25;35.70;102491.06;4155628;28;20030;-58
2021/06/07 07:00:04;;;;;;;0.73;0.73;;;;;;;21.29;35.71;102499.81;4158898;28;20026;-62
2021/06/07 07:02:05;;;;;;;0.55;0.55;;;;;;;21.28;36.08;102487.75;4156748;28;20022;-59
2021/06/07 07:04:05;;;;;;;2.70;0.60;;;;;;;21.33;36.19;102492.59;4157826;28;20047;-59
2021/06/07 07:06:06;;;;;;;0.43;0.43;;;;;;;21.35;35.92;102496.81;4160136;28;20042;-59
2021/06/07 07:08:07;;;;;;;0.70;0.60;;;;;;;21.38;36.04;102495.47;4155598;28;20038;-55
2021/06/07 07:10:08;;;;;;;1.25;0.60;;;;;;;21.22;35.96;102472.06;4151898;28;20029;-53
2021/06/07 07:12:12;;;;;;;0.75;0.60;;;;;;;21.36;35.92;102497.66;4153757;28;20038;-55
2021/06/07 07:14:13;;;;;;;1.20;0.70;;;;;;;21.40;36.18;102501.63;4152278;28;20501;-54
2021/06/07 07:16:13;;;;;;;1.20;0.50;;;;;;;21.34;36.06;102497.91;4153696;28;20026;-54
2021/06/07 07:18:14;;;;;;;1.08;0.60;;;;;;;21.33;36.06;102496.25;4153807;28;20045;-54
2021/06/07 07:20:15;;;;;;;1.52;0.88;;;;;;;21.45;36.26;102498.06;4155490;28;20026;-54
2021/06/07 07:22:16;;;;;;;0.60;0.43;;;;;;;21.41;36.28;102492.19;4154082;28;20634;-51
2021/06/07 07:24:16;;;;;;;1.08;0.65;;;;;;;21.41;36.33;102488.53;4155058;28;20052;-53
2021/06/07 07:26:17;;;;;;;2.85;0.95;;;;;;;21.51;36.30;102492.31;4152513;28;20030;-52
2021/06/07 07:28:18;;;;;;;2.40;1.30;;;;;;;21.47;36.30;102493.06;4150486;28;20377;-52
2021/06/07 07:30:21;;;;;;;7.05;2.10;;;;;;;21.59;36.01;102487.41;4153562;28;20052;-51
2021/06/07 07:32:25;;;;;;;10.07;2.50;;;;;;;21.56;35.93;102491.53;4154200;28;20025;-50
2021/06/07 07:34:25;;;;;;;11.25;3.35;;;;;;;21.54;36.45;102490.97;4156604;28;20057;-51
2021/06/07 07:36:26;;;;;;;8.55;2.72;;;;;;;21.52;36.30;102494.00;4148488;28;20049;-54
2021/06/07 07:38:26;;;;;;;14.05;3.20;;;;;;;21.51;36.26;102500.66;4157358;28;20061;-49
2021/06/07 07:40:27;;;;;;;8.25;2.65;;;;;;;21.56;36.27;102485.97;4156621;28;20519;-53
2021/06/07 07:42:27;;;;;;;10.93;3.35;;;;;;;21.58;36.15;102494.06;4157737;28;20439;-53
2021/06/07 07:44:28;;;;;;;11.73;3.30;;;;;;;21.59;35.99;102488.22;4151931;28;20038;-53
2021/06/07 07:46:29;;;;;;;11.95;3.53;;;;;;;21.59;36.29;102490.19;4156754;28;20037;-53
2021/06/07 07:48:30;;;;;;;16.13;3.75;;;;;;;21.55;36.29;102478.72;4153175;28;20036;-52
2021/06/07 07:50:31;;;;;;;12.20;3.40;;;;;;;21.57;36.37;102484.88;4154722;28;20038;-49
2021/06/07 07:52:31;;;;;;;10.90;3.88;;;;;;;21.60;36.29;102487.16;4157643;28;20025;-50
2021/06/07 07:54:32;;;;;;;11.32;3.67;;;;;;;21.60;36.36;102494.66;4156112;28;20072;-51
2021/06/07 07:56:34;;;;;;;12.35;2.88;;;;;;;21.60;36.13;102491.88;4155488;28;20064;-49
2021/06/07 07:58:34;;;;;;;9.68;3.63;;;;;;;21.70;36.16;102490.06;4156491;28;20087;-47
2021/06/07 08:00:35;;;;;;;35.17;4.07;;;;;;;21.58;35.76;102496.84;4146623;28;20095;-47
2021/06/07 08:02:36;;;;;;;13.88;3.17;;;;;;;21.61;36.43;102493.56;4150872;28;20484;-49
2021/06/07 08:04:37;;;;;;;16.75;3.45;;;;;;;21.65;36.27;102486.38;4150619;28;20356;-50
2021/06/07 08:06:39;;;;;;;12.90;2.97;;;;;;;21.72;35.92;102490.66;4133624;28;20535;-46
2021/06/07 08:08:39;;;;;;;12.80;3.00;;;;;;;21.79;35.77;102487.66;4155083;28;20502;-51
2021/06/07 08:10:40;;;;;;;8.65;2.40;;;;;;;21.80;35.64;102489.34;4153237;28;20223;-46
2021/06/07 08:12:41;;;;;;;12.98;2.75;;;;;;;21.82;35.96;102486.31;4148485;28;20029;-46
2021/06/07 08:14:42;;;;;;;10.80;2.67;;;;;;;21.81;35.36;102485.47;4153454;28;20504;-48
2021/06/07 08:16:42;;;;;;;10.88;2.35;;;;;;;21.87;35.18;102480.78;4153969;28;20025;-46
2021/06/07 08:18:43;;;;;;;13.82;2.72;;;;;;;21.85;36.00;102480.22;4153899;28;20343;-46
2021/06/07 08:20:44;;;;;;;10.85;2.13;;;;;;;21.87;35.39;102494.72;4155057;28;20502;-47
2021/06/07 08:22:47;;;;;;;8.23;2.40;;;;;;;21.92;35.61;102487.28;4155433;28;20376;-48
2021/06/07 08:24:47;;;;;;;11.48;2.60;;;;;;;21.92;35.63;102480.88;4152748;28;20507;-48
2021/06/07 08:26:48;;;;;;;10.85;1.63;;;;;;;21.95;35.48;102480.34;4154071;28;20034;-47
2021/06/07 08:28:48;;;;;;;7.85;2.33;;;;;;;21.98;35.46;102485.44;4155506;28;20438;-48
2021/06/07 08:30:48;;;;;;;6.63;2.20;;;;;;;21.85;35.66;102452.34;4154939;28;20651;-49
2021/06/07 08:32:49;;;;;;;7.05;2.30;;;;;;;22.05;35.82;102486.06;4137303;28;20034;-49
2021/06/07 08:34:50;;;;;;;8.43;2.35;;;;;;;22.02;35.52;102474.59;4152064;28;20041;-51
2021/06/07 08:36:50;;;;;;;6.32;1.52;;;;;;;22.09;35.22;102484.44;4153464;28;20112;-49
2021/06/07 08:38:51;;;;;;;5.35;2.08;;;;;;;22.12;35.37;102488.66;4152564;28;20037;-47
2021/06/07 08:40:53;;;;;;;7.93;1.77;;;;;;;22.11;35.90;102483.34;4152566;28;20530;-50
2021/06/07 08:42:53;;;;;;;5.90;1.80;;;;;;;22.16;35.61;102483.41;4153795;28;20041;-49
2021/06/07 08:44:54;;;;;;;7.45;2.40;;;;;;;22.19;35.75;102480.91;4152919;28;20519;-53
2021/06/07 08:46:55;;;;;;;3.63;1.73;;;;;;;22.24;35.27;102481.00;4156072;28;20029;-50
2021/06/07 08:48:56;;;;;;;5.95;2.00;;;;;;;22.23;35.68;102470.09;4155213;28;20051;-48
2021/06/07 08:51:01;;;;;;;5.28;1.30;;;;;;;22.24;36.22;102480.13;4141222;28;20133;-49
2021/06/07 08:53:01;;;;;;;4.75;1.70;;;;;;;22.35;35.74;102479.13;4154777;28;20924;-46
2021/06/07 08:55:06;;;;;;;3.90;1.38;;;;;;;22.35;35.81;102478.28;4156119;28;20045;-49
2021/06/07 08:57:06;;;;;;;4.28;1.80;;;;;;;22.23;35.59;102461.72;4154742;28;20447;-48
2021/06/07 08:59:07;;;;;;;7.50;1.40;;;;;;;22.35;35.78;102472.72;4156093;28;20030;-49
2021/06/07 09:01:09;;;;;;;6.47;1.30;;;;;;;22.33;35.84;102472.97;4155539;28;20087;-48
2021/06/07 09:03:15;;;;;;;4.75;1.30;;;;;;;22.44;35.75;102483.13;4156511;28;20052;-47
2021/06/07 09:05:17;;;;;;;4.25;1.50;;;;;;;22.45;36.01;102479.22;4155149;28;20109;-47
2021/06/07 09:07:18;;;;;;;5.57;1.50;;;;;;;22.49;35.20;102479.53;4158758;28;20037;-52
2021/06/07 09:09:22;;;;;;;5.72;1.40;;;;;;;22.57;36.04;102475.41;4155275;28;20083;-50
2021/06/07 09:11:23;;;;;;;7.90;1.20;;;;;;;22.54;35.87;102475.94;4156277;28;20403;-53
2021/06/07 09:13:28;;;;;;;3.20;1.00;;;;;;;22.56;35.38;102473.75;4132664;28;20085;-55
2021/06/07 09:15:43;;;;;;;3.15;1.13;;;;;;;22.62;35.74;102475.50;4151536;28;20140;-53
2021/06/07 09:17:45;;;;;;;1.55;1.10;;;;;;;22.63;35.74;102474.38;4156199;28;20029;-49
2021/06/07 09:19:47;;;;;;;9.60;1.27;;;;;;;22.67;35.50;102480.31;4156617;28;20037;-48
2021/06/07 09:21:49;;;;;;;6.10;0.90;;;;;;;22.69;35.46;102473.34;4152850;28;20035;-54
2021/06/07 09:23:51;;;;;;;3.13;1.27;;;;;;;22.69;35.39;102470.53;4154959;28;20030;-49
2021/06/07 09:25:51;;;;;;;3.05;1.17;;;;;;;22.75;35.24;102469.47;4154011;28;20033;-46
2021/06/07 09:28:19;;;;;;;8.48;1.10;;;;;;;22.72;36.02;102464.44;4155107;28;20118;-46